Time;durP1;ratioP1;P1;durP2;ratioP2;P2;SDS_P1;SDS_P2;PMS_P1;PMS_P2;Temp;Humidity;BMP_temperature;BMP_pressure;BME280_temperature;BME280_humidity;BME280_pressure;Samples;Min_cycle;Max_cycle;Signal;HPM_P1;HPM_P2
2021/03/02 00:01:11;;;;;;;18.07;9.90;;;;;;;0.32;100.00;102814.91;5033206;28;20219;-70
2021/03/02 00:03:37;;;;;;;16.03;9.13;;;;;;;0.35;100.00;102817.25;5049943;28;20608;-69
2021/03/02 00:06:09;;;;;;;15.83;9.17;;;;;;;0.27;100.00;102817.19;5049800;28;20220;-69
2021/03/02 00:08:37;;;;;;;17.57;9.70;;;;;;;-0.16;100.00;102811.75;5033890;28;20946;-69
2021/03/02 00:11:03;;;;;;;18.10;9.17;;;;;;;-0.04;100.00;102815.88;5016513;28;20223;-69
2021/03/02 00:13:29;;;;;;;15.13;9.27;;;;;;;-0.11;100.00;102808.63;5033013;28;20246;-70
2021/03/02 00:16:02;;;;;;;16.60;9.57;;;;;;;0.14;100.00;102808.72;5013450;28;20223;-69
2021/03/02 00:18:31;;;;;;;17.77;9.57;;;;;;;0.24;100.00;102812.13;5014561;28;20591;-70
2021/03/02 00:21:03;;;;;;;17.77;10.27;;;;;;;0.22;100.00;102811.44;5014116;28;20366;-69
2021/03/02 00:23:38;;;;;;;16.77;10.23;;;;;;;0.22;100.00;102814.13;5048390;28;20211;-70
2021/03/02 00:26:03;;;;;;;16.97;10.53;;;;;;;0.17;100.00;102809.25;5033301;28;20276;-69
2021/03/02 00:28:29;;;;;;;19.17;11.17;;;;;;;0.23;100.00;102807.81;5016335;28;20171;-69
2021/03/02 00:30:55;;;;;;;18.70;10.27;;;;;;;0.28;100.00;102806.34;5016272;28;20602;-70
2021/03/02 00:33:21;;;;;;;21.10;11.87;;;;;;;0.27;100.00;102804.66;5049826;28;20207;-70
2021/03/02 00:35:47;;;;;;;20.17;10.53;;;;;;;0.23;100.00;102797.13;5032199;28;20623;-70
2021/03/02 00:38:14;;;;;;;17.10;10.73;;;;;;;0.20;100.00;102808.97;5033044;28;20199;-69
2021/03/02 00:40:40;;;;;;;14.97;10.47;;;;;;;0.06;100.00;102797.97;5032012;28;20227;-69
2021/03/02 00:43:05;;;;;;;17.73;10.27;;;;;;;-0.02;100.00;102799.69;5031935;28;20692;-70
2021/03/02 00:45:31;;;;;;;15.43;9.67;;;;;;;0.03;100.00;102800.94;5040032;28;20222;-70
2021/03/02 00:48:01;;;;;;;15.97;10.40;;;;;;;0.08;100.00;102804.81;5049254;28;20180;-69
2021/03/02 00:50:29;;;;;;;16.57;9.40;;;;;;;-0.21;100.00;102811.34;5019323;28;20219;-70
2021/03/02 00:52:56;;;;;;;14.27;9.33;;;;;;;-0.37;100.00;102813.88;5080312;28;20663;-70
2021/03/02 00:55:24;;;;;;;16.90;9.50;;;;;;;-0.49;100.00;102816.88;5084430;28;20242;-69
2021/03/02 00:57:52;;;;;;;14.17;9.33;;;;;;;-0.52;100.00;102824.34;5049358;28;20364;-70
2021/03/02 01:00:23;;;;;;;14.43;9.23;;;;;;;-0.34;100.00;102813.53;5065814;28;20226;-69
2021/03/02 01:02:51;;;;;;;15.57;9.30;;;;;;;-0.32;100.00;102811.56;5031376;28;20192;-69
2021/03/02 01:05:19;;;;;;;14.10;9.13;;;;;;;-0.37;100.00;102819.19;5016303;28;20679;-69
2021/03/02 01:07:46;;;;;;;16.00;9.13;;;;;;;-0.21;100.00;102807.84;5048993;28;20650;-69
2021/03/02 01:10:19;;;;;;;15.90;9.63;;;;;;;-0.07;100.00;102810.84;5016746;28;20202;-70
2021/03/02 01:12:50;;;;;;;13.93;10.07;;;;;;;-0.04;100.00;102810.53;5016987;28;20191;-70
2021/03/02 01:15:19;;;;;;;18.00;9.40;;;;;;;0.00;100.00;102803.94;5023229;28;20194;-70
2021/03/02 01:17:44;;;;;;;15.67;9.43;;;;;;;0.06;100.00;102801.47;5040824;28;20191;-69
2021/03/02 01:20:10;;;;;;;16.10;9.27;;;;;;;0.01;100.00;102800.25;5015309;28;20188;-70
2021/03/02 01:22:36;;;;;;;16.00;9.50;;;;;;;0.07;100.00;102803.16;5031558;28;20345;-69
2021/03/02 01:25:04;;;;;;;15.13;9.60;;;;;;;0.07;100.00;102796.97;5087880;28;20199;-70
2021/03/02 01:27:29;;;;;;;15.70;9.37;;;;;;;0.06;100.00;102796.13;5048405;28;20771;-69
2021/03/02 01:29:57;;;;;;;17.97;9.77;;;;;;;0.00;100.00;102785.22;5031981;28;20197;-71
2021/03/02 01:32:23;;;;;;;16.20;10.00;;;;;;;-0.17;100.00;102791.38;5063536;28;20231;-71
2021/03/02 01:34:48;;;;;;;18.27;10.47;;;;;;;-0.08;100.00;102790.47;5032043;28;20215;-70
2021/03/02 01:37:14;;;;;;;19.10;10.70;;;;;;;-0.12;100.00;102786.44;5031246;28;20230;-70
2021/03/02 01:39:42;;;;;;;19.03;10.47;;;;;;;-0.09;100.00;102778.13;5015213;28;20191;-71
2021/03/02 01:42:07;;;;;;;18.87;10.77;;;;;;;-0.16;100.00;102785.06;5047126;28;20251;-70
2021/03/02 01:44:33;;;;;;;17.33;10.13;;;;;;;-0.34;100.00;102778.84;5033569;28;20238;-69
2021/03/02 01:46:59;;;;;;;17.07;10.67;;;;;;;-0.18;100.00;102781.69;5026521;28;20215;-70
2021/03/02 01:49:27;;;;;;;17.23;10.03;;;;;;;-0.11;100.00;102777.44;5051910;28;20194;-71
2021/03/02 01:51:52;;;;;;;14.70;9.67;;;;;;;-0.30;100.00;102776.72;5043391;28;20774;-69
2021/03/02 01:54:20;;;;;;;16.63;10.07;;;;;;;-0.33;100.00;102780.53;5036135;28;20207;-70
2021/03/02 01:56:46;;;;;;;18.10;10.07;;;;;;;-0.42;100.00;102775.28;5019724;28;20318;-69
2021/03/02 01:59:14;;;;;;;16.83;10.07;;;;;;;-0.44;100.00;102768.38;5052623;28;20236;-69
2021/03/02 02:01:40;;;;;;;16.20;9.80;;;;;;;-0.54;100.00;102763.13;5051678;28;20220;-70
2021/03/02 02:04:20;;;;;;;16.33;9.60;;;;;;;-0.68;100.00;102770.78;5048014;28;20252;-69
2021/03/02 02:06:56;;;;;;;17.07;10.03;;;;;;;-0.62;100.00;102764.88;5077376;28;20227;-69
2021/03/02 02:09:28;;;;;;;17.30;9.80;;;;;;;-0.36;100.00;102767.50;5035815;28;20237;-70
2021/03/02 02:12:22;;;;;;;14.60;9.30;;;;;;;-0.38;100.00;102766.81;5050854;28;20231;-70
2021/03/02 02:14:56;;;;;;;17.53;10.00;;;;;;;-0.56;100.00;102766.94;5038680;28;20249;-70
2021/03/02 02:17:38;;;;;;;16.23;9.87;;;;;;;-0.78;100.00;102777.16;5035114;28;20231;-70
2021/03/02 02:20:07;;;;;;;15.17;9.70;;;;;;;-0.87;100.00;102770.88;5020448;28;20187;-72
2021/03/02 02:22:54;;;;;;;16.20;9.40;;;;;;;-0.88;100.00;102769.22;5052582;28;20847;-69
2021/03/02 02:25:37;;;;;;;16.20;9.77;;;;;;;-0.65;100.00;102759.81;5055816;28;20374;-69
2021/03/02 02:28:02;;;;;;;19.63;10.17;;;;;;;-0.45;100.00;102761.38;5020920;28;20187;-69
2021/03/02 02:30:31;;;;;;;16.83;10.10;;;;;;;-0.35;100.00;102758.50;5034973;28;20281;-69
2021/03/02 02:32:59;;;;;;;17.43;10.27;;;;;;;-0.34;100.00;102762.84;5034652;28;20210;-71
2021/03/02 02:35:29;;;;;;;17.23;9.27;;;;;;;-0.25;100.00;102769.94;5035334;28;20720;-70
2021/03/02 02:37:57;;;;;;;14.67;9.53;;;;;;;-0.27;100.00;102766.59;5035723;28;20190;-71
2021/03/02 02:40:25;;;;;;;16.43;9.97;;;;;;;-0.32;100.00;102763.53;5018872;28;20187;-70
2021/03/02 02:42:57;;;;;;;19.93;11.00;;;;;;;-0.35;100.00;102763.84;5018382;28;20287;-69
2021/03/02 02:45:23;;;;;;;19.70;11.40;;;;;;;-0.38;100.00;102764.13;5019825;28;20227;-69
2021/03/02 02:47:49;;;;;;;19.00;11.27;;;;;;;-0.51;100.00;102759.28;5002779;28;20179;-69
2021/03/02 02:50:17;;;;;;;18.87;11.07;;;;;;;-0.62;100.00;102772.88;5018717;28;20202;-70
2021/03/02 02:52:42;;;;;;;18.43;10.80;;;;;;;-0.80;100.00;102752.47;5019380;28;20218;-70
2021/03/02 02:55:08;;;;;;;16.33;10.13;;;;;;;-0.81;100.00;102770.28;5024307;28;20187;-70
2021/03/02 02:57:35;;;;;;;16.17;10.03;;;;;;;-0.91;100.00;102769.50;5036139;28;20285;-71
2021/03/02 03:00:03;;;;;;;17.43;10.20;;;;;;;-0.80;100.00;102771.97;5019064;28;20233;-70
2021/03/02 03:02:29;;;;;;;20.47;11.43;;;;;;;-0.60;100.00;102762.88;5050768;28;20242;-69
2021/03/02 03:04:58;;;;;;;17.87;10.53;;;;;;;-0.56;100.00;102764.25;5018181;28;20272;-68
2021/03/02 03:07:29;;;;;;;18.80;11.03;;;;;;;-0.43;100.00;102764.75;5018278;28;20265;-69
2021/03/02 03:09:57;;;;;;;19.67;10.70;;;;;;;-0.48;100.00;102767.00;5018868;28;20867;-70
2021/03/02 03:12:23;;;;;;;19.83;11.60;;;;;;;-0.43;100.00;102765.56;5034043;28;20235;-69
2021/03/02 03:14:53;;;;;;;20.03;10.80;;;;;;;-0.44;100.00;102766.59;5018245;28;20762;-69
2021/03/02 03:17:21;;;;;;;21.20;11.37;;;;;;;-0.48;100.00;102761.69;5017807;28;20223;-70
2021/03/02 03:19:47;;;;;;;21.17;11.30;;;;;;;-0.58;100.00;102772.41;5051152;28;20196;-70
2021/03/02 03:22:14;;;;;;;19.97;11.60;;;;;;;-0.76;100.00;102768.03;5049735;28;20927;-69
2021/03/02 03:24:39;;;;;;;18.77;10.87;;;;;;;-0.71;100.00;102761.25;5024204;28;20211;-70
2021/03/02 03:27:07;;;;;;;17.13;10.87;;;;;;;-0.71;100.00;102769.25;5022100;28;20225;-69
2021/03/02 03:29:33;;;;;;;16.20;10.00;;;;;;;-0.63;100.00;102768.50;5018028;28;20648;-69
2021/03/02 03:31:58;;;;;;;17.43;10.50;;;;;;;-0.54;100.00;102765.78;5032577;28;20227;-69
2021/03/02 03:34:24;;;;;;;19.47;11.40;;;;;;;-0.53;100.00;102769.28;5051087;28;20672;-69
2021/03/02 03:36:49;;;;;;;17.90;10.57;;;;;;;-0.50;100.00;102769.81;5033590;28;20215;-69
2021/03/02 03:39:15;;;;;;;19.07;10.67;;;;;;;-0.54;100.00;102763.13;5034487;28;20324;-69
2021/03/02 03:41:40;;;;;;;19.53;10.63;;;;;;;-0.72;100.00;102758.72;5033724;28;20224;-69
2021/03/02 03:44:06;;;;;;;17.67;10.00;;;;;;;-0.71;100.00;102753.25;5052126;28;20199;-68
2021/03/02 03:46:36;;;;;;;16.70;10.70;;;;;;;-0.83;100.00;102766.91;5000586;28;20215;-69
2021/03/02 03:49:02;;;;;;;18.33;10.63;;;;;;;-0.88;100.00;102753.22;5017789;28;20180;-70
2021/03/02 03:51:27;;;;;;;16.77;10.20;;;;;;;-0.91;100.00;102755.34;5050060;28;20235;-69
2021/03/02 03:53:53;;;;;;;16.37;9.47;;;;;;;-0.98;100.00;102756.91;5023260;28;20207;-70
2021/03/02 03:56:19;;;;;;;17.73;10.47;;;;;;;-0.90;100.00;102757.81;5017258;28;20236;-69
2021/03/02 03:58:47;;;;;;;15.90;10.23;;;;;;;-0.85;100.00;102758.22;5035039;28;20204;-69
2021/03/02 04:01:14;;;;;;;17.83;10.27;;;;;;;-0.76;100.00;102757.34;5034396;28;20233;-69
2021/03/02 04:03:45;;;;;;;15.43;9.30;;;;;;;-0.75;100.00;102759.03;5034411;28;20203;-69
2021/03/02 04:06:13;;;;;;;16.17;10.13;;;;;;;-0.74;100.00;102766.03;5050586;28;20222;-69
2021/03/02 04:08:41;;;;;;;15.53;10.17;;;;;;;-0.73;100.00;102757.91;5034832;28;20176;-68
2021/03/02 04:11:09;;;;;;;18.63;10.60;;;;;;;-0.59;100.00;102756.53;5034188;28;20223;-69
2021/03/02 04:13:35;;;;;;;25.73;12.23;;;;;;;-0.50;100.00;102758.31;5017627;28;20708;-69
2021/03/02 04:16:03;;;;;;;26.57;12.83;;;;;;;-0.41;100.00;102760.09;5032849;28;20254;-69
2021/03/02 04:18:31;;;;;;;24.03;12.87;;;;;;;-0.19;100.00;102765.84;5033925;28;20214;-69
2021/03/02 04:20:59;;;;;;;22.17;12.50;;;;;;;-0.17;100.00;102761.19;5032923;28;20227;-69
2021/03/02 04:23:27;;;;;;;26.93;14.07;;;;;;;0.08;100.00;102762.09;5048683;28;20629;-69
2021/03/02 04:25:55;;;;;;;32.30;15.83;;;;;;;0.21;100.00;102762.53;5048984;28;20215;-69
2021/03/02 04:28:23;;;;;;;32.23;14.80;;;;;;;0.36;100.00;102765.50;5033218;28;20565;-69
2021/03/02 04:30:48;;;;;;;30.23;15.73;;;;;;;0.38;100.00;102759.00;5032354;28;20246;-69
2021/03/02 04:33:14;;;;;;;36.87;16.00;;;;;;;0.44;100.00;102759.22;5032228;28;20215;-69
2021/03/02 04:35:39;;;;;;;51.37;16.63;;;;;;;0.25;100.00;102757.72;4999727;28;20223;-69
2021/03/02 04:38:05;;;;;;;33.57;16.60;;;;;;;0.22;100.00;102752.69;5033695;28;20190;-69
2021/03/02 04:40:31;;;;;;;43.60;16.63;;;;;;;0.28;100.00;102762.78;5032564;28;20377;-69
2021/03/02 04:42:57;;;;;;;31.67;16.57;;;;;;;0.37;100.00;102761.81;5066076;28;20230;-68
2021/03/02 04:45:22;;;;;;;31.80;15.70;;;;;;;0.41;100.00;102759.53;5050595;28;20223;-70
2021/03/02 04:47:48;;;;;;;32.67;16.20;;;;;;;0.45;100.00;102758.22;5066329;28;20203;-70
2021/03/02 04:50:14;;;;;;;30.37;16.40;;;;;;;0.52;100.00;102761.13;5032819;28;20199;-70
2021/03/02 04:52:43;;;;;;;46.03;17.07;;;;;;;0.50;100.00;102769.28;5033685;28;20649;-68
2021/03/02 04:55:14;;;;;;;33.90;16.70;;;;;;;0.62;100.00;102762.66;5054604;28;20183;-68
2021/03/02 04:57:42;;;;;;;35.47;16.30;;;;;;;0.69;100.00;102763.72;5017175;28;20223;-68
2021/03/02 05:00:11;;;;;;;30.13;15.97;;;;;;;0.67;100.00;102764.91;5017946;28;20191;-68
2021/03/02 05:02:37;;;;;;;29.83;16.50;;;;;;;0.63;100.00;102761.69;5032822;28;20684;-69
2021/03/02 05:05:03;;;;;;;28.43;16.73;;;;;;;0.53;100.00;102758.28;5060834;28;20199;-69
2021/03/02 05:07:28;;;;;;;28.47;15.93;;;;;;;0.56;100.00;102757.97;5068992;28;20179;-68
2021/03/02 05:09:56;;;;;;;28.67;16.40;;;;;;;0.54;100.00;102761.78;5036289;28;20560;-68
2021/03/02 05:12:24;;;;;;;29.33;15.63;;;;;;;0.59;100.00;102756.84;5034409;28;20232;-68
2021/03/02 05:14:55;;;;;;;36.57;15.40;;;;;;;0.51;100.00;102754.94;5035823;28;20281;-68
2021/03/02 05:17:23;;;;;;;30.23;15.57;;;;;;;0.37;100.00;102748.44;5052378;28;20246;-68
2021/03/02 05:19:49;;;;;;;23.80;15.23;;;;;;;0.43;100.00;102752.19;5085497;28;20214;-68
2021/03/02 05:22:16;;;;;;;26.00;15.20;;;;;;;0.44;100.00;102753.88;5039538;28;20211;-68
2021/03/02 05:24:42;;;;;;;29.03;16.47;;;;;;;0.23;100.00;102751.69;5021856;28;20229;-68
2021/03/02 05:27:07;;;;;;;27.07;16.50;;;;;;;0.16;100.00;102747.97;5031212;28;20254;-68
2021/03/02 05:29:33;;;;;;;32.57;16.00;;;;;;;0.21;100.00;102745.69;5029168;28;20198;-68
2021/03/02 05:31:59;;;;;;;30.20;16.30;;;;;;;0.26;100.00;102751.41;5049271;28;20238;-68
2021/03/02 05:34:24;;;;;;;23.87;15.77;;;;;;;0.23;100.00;102754.38;5031463;28;20207;-67
2021/03/02 05:36:50;;;;;;;26.57;15.30;;;;;;;0.19;100.00;102753.00;5067100;28;20276;-70
2021/03/02 05:39:18;;;;;;;24.13;15.03;;;;;;;0.01;100.00;102754.84;5035570;28;20567;-69
2021/03/02 05:41:47;;;;;;;22.40;14.43;;;;;;;0.10;100.00;102748.59;5033910;28;20246;-71
2021/03/02 05:44:13;;;;;;;24.80;14.60;;;;;;;-0.04;100.00;102750.97;5052446;28;20191;-70
2021/03/02 05:46:41;;;;;;;23.30;14.97;;;;;;;0.20;100.00;102747.53;5018728;28;20589;-69
2021/03/02 05:49:09;;;;;;;23.77;15.30;;;;;;;0.05;100.00;102753.53;5030801;28;20192;-69
2021/03/02 05:51:37;;;;;;;24.17;15.43;;;;;;;0.15;100.00;102747.13;5028361;28;20270;-70
2021/03/02 05:54:04;;;;;;;24.10;14.97;;;;;;;0.18;100.00;102751.31;5018427;28;20387;-70
2021/03/02 05:56:29;;;;;;;24.57;14.87;;;;;;;-0.06;100.00;102755.63;5011818;28;20382;-69
2021/03/02 05:58:57;;;;;;;26.87;14.67;;;;;;;-0.07;100.00;102751.25;5012811;28;20191;-70
2021/03/02 06:01:25;;;;;;;23.03;14.33;;;;;;;-0.15;100.00;102749.34;4995838;28;20877;-73
2021/03/02 06:03:50;;;;;;;24.77;15.43;;;;;;;0.16;100.00;102753.31;5028855;28;20258;-70
2021/03/02 06:06:16;;;;;;;25.70;15.97;;;;;;;0.22;100.00;102755.34;5036713;28;20216;-70
2021/03/02 06:08:44;;;;;;;24.57;15.00;;;;;;;0.00;100.00;102753.19;5050153;28;20194;-71
2021/03/02 06:11:34;;;;;;;25.43;15.40;;;;;;;0.14;100.00;102753.44;5031135;28;20226;-70
2021/03/02 06:14:20;;;;;;;24.67;15.23;;;;;;;0.04;100.00;102743.88;5015156;28;20215;-73
2021/03/02 06:16:46;;;;;;;23.63;14.40;;;;;;;0.06;100.00;102749.91;5031958;28;20743;-69
2021/03/02 06:19:12;;;;;;;21.87;13.60;;;;;;;-0.10;100.00;102746.25;5004173;28;20191;-70
2021/03/02 06:21:37;;;;;;;21.23;14.53;;;;;;;-0.02;100.00;102755.13;5013899;28;20220;-71
2021/03/02 06:24:03;;;;;;;21.60;13.77;;;;;;;0.09;100.00;102754.91;5048002;28;20210;-70
2021/03/02 06:26:29;;;;;;;26.13;13.80;;;;;;;0.19;100.00;102756.50;5049303;28;20224;-70
2021/03/02 06:28:56;;;;;;;22.47;14.23;;;;;;;0.14;100.00;102756.13;5049386;28;20184;-71
2021/03/02 06:31:41;;;;;;;24.07;14.03;;;;;;;0.17;100.00;102766.50;5030508;28;20630;-70
2021/03/02 06:34:17;;;;;;;24.40;15.20;;;;;;;0.30;100.00;102760.78;5031956;28;20208;-70
2021/03/02 06:37:03;;;;;;;25.07;14.17;;;;;;;0.25;100.00;102760.41;5047664;28;20231;-69
2021/03/02 06:39:35;;;;;;;23.00;14.43;;;;;;;0.14;100.00;102765.97;5050433;28;20542;-71
2021/03/02 06:42:11;;;;;;;21.77;14.03;;;;;;;0.02;100.00;102767.22;5017910;28;20280;-70
2021/03/02 06:44:37;;;;;;;20.60;14.20;;;;;;;0.26;100.00;102764.75;5051812;28;20207;-69
2021/03/02 06:47:03;;;;;;;21.97;14.30;;;;;;;0.19;100.00;102766.38;5051161;28;20219;-69
2021/03/02 06:49:42;;;;;;;19.43;12.67;;;;;;;0.25;100.00;102765.75;5051467;28;20187;-69
2021/03/02 06:52:15;;;;;;;17.83;12.47;;;;;;;0.38;100.00;102759.00;5017396;28;20345;-69
2021/03/02 06:54:41;;;;;;;20.27;12.83;;;;;;;0.47;100.00;102761.56;5041871;28;20231;-69
2021/03/02 06:57:06;;;;;;;19.70;13.37;;;;;;;0.52;100.00;102771.81;5030974;28;20267;-71
2021/03/02 06:59:32;;;;;;;19.90;13.23;;;;;;;0.48;100.00;102765.94;5051696;28;20195;-70
2021/03/02 07:02:00;;;;;;;20.43;12.57;;;;;;;0.56;100.00;102773.16;5066753;28;20223;-71
2021/03/02 07:04:28;;;;;;;20.47;12.50;;;;;;;0.59;100.00;102772.88;5035151;28;20203;-71
2021/03/02 07:07:01;;;;;;;19.40;13.20;;;;;;;0.68;100.00;102778.09;5017624;28;20224;-70
2021/03/02 07:09:29;;;;;;;18.63;12.77;;;;;;;0.63;100.00;102785.75;5020111;28;20274;-70
2021/03/02 07:12:04;;;;;;;23.10;13.57;;;;;;;0.72;100.00;102784.81;5038456;28;20265;-70
2021/03/02 07:14:30;;;;;;;19.50;12.67;;;;;;;0.83;100.00;102776.53;5053927;28;20727;-71
2021/03/02 07:17:00;;;;;;;20.00;13.20;;;;;;;0.86;100.00;102786.91;5025226;28;20228;-71
2021/03/02 07:19:26;;;;;;;19.83;13.87;;;;;;;0.92;100.00;102786.28;5007538;28;20183;-68
2021/03/02 07:21:55;;;;;;;22.80;14.03;;;;;;;0.97;100.00;102778.59;5037346;28;20265;-68
2021/03/02 07:24:27;;;;;;;20.10;13.20;;;;;;;1.06;100.00;102777.66;5025294;28;20579;-68
2021/03/02 07:26:57;;;;;;;21.73;13.43;;;;;;;1.13;100.00;102776.84;5054131;28;20220;-69
2021/03/02 07:29:22;;;;;;;19.70;13.73;;;;;;;0.95;100.00;102778.78;5036068;28;20191;-68
2021/03/02 07:31:48;;;;;;;20.80;13.13;;;;;;;0.95;100.00;102786.81;5051026;28;20220;-68
2021/03/02 07:34:13;;;;;;;21.13;13.97;;;;;;;1.06;100.00;102783.00;5051365;28;20672;-70
2021/03/02 07:36:42;;;;;;;21.87;13.47;;;;;;;1.14;100.00;102791.94;5067616;28;20223;-68
2021/03/02 07:39:20;;;;;;;18.70;13.03;;;;;;;1.14;100.00;102787.41;5018880;28;20274;-70
2021/03/02 07:41:47;;;;;;;19.90;13.00;;;;;;;1.27;100.00;102782.44;5033602;28;20247;-69
2021/03/02 07:44:13;;;;;;;20.00;13.80;;;;;;;1.42;100.00;102786.19;5051247;28;20719;-69
2021/03/02 07:46:39;;;;;;;18.53;12.53;;;;;;;1.49;100.00;102786.41;5051019;28;20254;-69
2021/03/02 07:49:31;;;;;;;19.43;12.73;;;;;;;1.40;100.00;102782.84;5052742;28;20241;-69
2021/03/02 07:52:00;;;;;;;19.23;12.90;;;;;;;1.46;100.00;102787.53;5047707;28;20716;-71
2021/03/02 07:54:29;;;;;;;18.63;13.17;;;;;;;1.54;100.00;102784.91;5051364;28;20203;-68
2021/03/02 07:57:19;;;;;;;18.17;12.33;;;;;;;1.53;100.00;102793.94;5049165;28;20216;-70
2021/03/02 08:00:07;;;;;;;20.47;13.33;;;;;;;1.74;100.00;102797.00;5036475;28;20278;-70
2021/03/02 08:02:33;;;;;;;19.60;12.30;;;;;;;1.82;100.00;102791.69;5068349;28;20665;-69
2021/03/02 08:05:39;;;;;;;19.30;12.73;;;;;;;1.83;100.00;102801.38;5051727;28;20250;-68
2021/03/02 08:08:22;;;;;;;21.60;13.70;;;;;;;1.89;100.00;102795.34;5007767;28;20212;-69
2021/03/02 08:10:52;;;;;;;19.83;12.50;;;;;;;1.98;100.00;102790.72;5047053;28;20211;-69
2021/03/02 08:13:33;;;;;;;20.63;13.37;;;;;;;2.02;100.00;102788.53;5033556;28;20196;-69
2021/03/02 08:16:02;;;;;;;19.87;13.33;;;;;;;2.05;100.00;102786.38;5049470;28;20227;-69
2021/03/02 08:18:32;;;;;;;19.63;13.10;;;;;;;2.10;100.00;102786.69;5033385;28;20182;-69
2021/03/02 08:21:16;;;;;;;18.90;13.13;;;;;;;2.22;100.00;102787.22;5049092;28;20227;-70
2021/03/02 08:24:00;;;;;;;16.37;12.30;;;;;;;2.25;100.00;102785.03;5064986;28;20731;-69
2021/03/02 08:26:29;;;;;;;17.53;12.37;;;;;;;2.35;100.00;102791.91;5032969;28;20212;-69
2021/03/02 08:29:10;;;;;;;16.90;12.00;;;;;;;2.41;100.00;102787.72;5049821;28;20254;-69
2021/03/02 08:31:37;;;;;;;17.90;12.27;;;;;;;2.56;100.00;102791.41;5032076;28;20265;-69
2021/03/02 08:34:04;;;;;;;16.90;11.33;;;;;;;2.61;100.00;102789.06;5032762;28;20216;-70
2021/03/02 08:36:30;;;;;;;17.03;11.50;;;;;;;2.59;100.00;102783.03;5032350;28;20219;-69
2021/03/02 08:38:58;;;;;;;15.03;10.83;;;;;;;2.77;100.00;102784.53;5016966;28;20180;-69
2021/03/02 08:41:33;;;;;;;16.50;11.83;;;;;;;2.76;100.00;102782.84;5032280;28;20680;-70
2021/03/02 08:43:59;;;;;;;15.33;10.43;;;;;;;2.77;100.00;102785.34;5032332;28;20257;-69
2021/03/02 08:46:32;;;;;;;16.13;11.13;;;;;;;2.88;100.00;102784.16;5032254;28;20219;-69
2021/03/02 08:48:58;;;;;;;13.63;10.70;;;;;;;3.00;100.00;102786.31;5033052;28;20214;-69
2021/03/02 08:51:27;;;;;;;15.43;11.23;;;;;;;3.07;100.00;102788.13;5032017;28;20235;-70
2021/03/02 08:53:55;;;;;;;14.43;10.80;;;;;;;3.01;100.00;102788.00;5034174;28;20200;-69
2021/03/02 08:56:27;;;;;;;15.27;10.80;;;;;;;3.27;100.00;102778.66;5072872;28;20255;-69
2021/03/02 08:58:55;;;;;;;14.00;10.70;;;;;;;3.25;100.00;102785.25;5047914;28;20179;-69
2021/03/02 09:01:21;;;;;;;14.40;10.63;;;;;;;3.38;100.00;102786.34;5046426;28;20242;-69
2021/03/02 09:03:46;;;;;;;15.20;10.97;;;;;;;3.46;100.00;102775.56;5047253;28;20203;-69
2021/03/02 09:06:21;;;;;;;12.63;9.90;;;;;;;3.53;100.00;102788.13;5060591;28;20248;-69
2021/03/02 09:08:53;;;;;;;14.00;10.27;;;;;;;3.80;100.00;102784.97;5069383;28;20225;-69
2021/03/02 09:11:26;;;;;;;14.00;10.20;;;;;;;3.65;100.00;102789.44;5068397;28;20272;-69
2021/03/02 09:14:00;;;;;;;14.43;10.20;;;;;;;3.68;100.00;102791.78;5067779;28;20248;-69
2021/03/02 09:16:29;;;;;;;14.83;10.73;;;;;;;3.81;100.00;102778.59;5049208;28;20223;-69
2021/03/02 09:19:10;;;;;;;14.77;10.80;;;;;;;4.10;100.00;102781.41;5043554;28;20183;-69
2021/03/02 09:21:39;;;;;;;14.50;10.50;;;;;;;4.02;100.00;102781.47;5031943;28;20219;-69
2021/03/02 09:24:05;;;;;;;14.30;10.87;;;;;;;4.07;100.00;102777.25;5013671;28;20207;-69
2021/03/02 09:26:31;;;;;;;12.73;9.70;;;;;;;4.37;100.00;102785.25;5061657;28;20306;-69
2021/03/02 09:29:01;;;;;;;13.07;9.93;;;;;;;4.44;100.00;102778.13;5029836;28;20275;-68
2021/03/02 09:31:28;;;;;;;12.57;10.00;;;;;;;4.53;100.00;102787.81;5048429;28;20644;-68
2021/03/02 09:33:53;;;;;;;13.70;10.17;;;;;;;4.60;100.00;102783.38;5027855;28;20200;-68
2021/03/02 09:36:19;;;;;;;13.47;10.17;;;;;;;4.74;100.00;102786.09;5031323;28;20226;-69
2021/03/02 09:38:48;;;;;;;12.67;10.00;;;;;;;4.80;100.00;102776.44;5032158;28;20180;-69
2021/03/02 09:41:38;;;;;;;14.13;9.77;;;;;;;4.93;99.96;102779.34;5047797;28;20230;-68
2021/03/02 09:44:33;;;;;;;13.33;9.73;;;;;;;5.34;98.07;102779.53;5028822;28;20211;-69
2021/03/02 09:47:02;;;;;;;11.53;9.50;;;;;;;5.39;96.51;102777.97;5028070;28;20592;-69
2021/03/02 09:49:45;;;;;;;11.43;9.17;;;;;;;5.37;96.18;102779.19;5028615;28;20227;-69
2021/03/02 09:52:19;;;;;;;12.33;9.53;;;;;;;5.58;97.33;102781.94;5037716;28;20211;-70
2021/03/02 09:54:45;;;;;;;11.67;9.67;;;;;;;5.68;95.46;102777.94;5070003;28;20217;-68
2021/03/02 09:57:11;;;;;;;10.37;9.10;;;;;;;5.73;94.56;102780.91;5015193;28;20231;-68
2021/03/02 09:59:36;;;;;;;10.70;8.90;;;;;;;5.89;95.69;102776.13;5047970;28;20253;-68
2021/03/02 10:02:02;;;;;;;9.60;8.60;;;;;;;5.97;95.36;102772.47;5026949;28;20227;-68
2021/03/02 10:04:30;;;;;;;10.70;8.60;;;;;;;6.10;93.19;102767.22;5031953;28;20341;-69
2021/03/02 10:07:09;;;;;;;10.67;8.27;;;;;;;6.23;92.60;102766.34;5015540;28;20228;-69
2021/03/02 10:09:34;;;;;;;9.57;8.00;;;;;;;6.39;91.72;102768.81;5048305;28;20184;-69
2021/03/02 10:12:10;;;;;;;10.93;8.57;;;;;;;6.57;91.11;102756.50;5048652;28;20223;-68
2021/03/02 10:14:39;;;;;;;9.27;7.53;;;;;;;6.63;87.34;102761.13;5053718;28;20276;-68
2021/03/02 10:17:05;;;;;;;8.63;7.40;;;;;;;6.66;88.40;102758.00;5053442;28;20604;-69
2021/03/02 10:19:31;;;;;;;9.20;8.03;;;;;;;6.61;88.13;102757.78;5019916;28;20187;-68
2021/03/02 10:22:02;;;;;;;9.40;8.33;;;;;;;6.85;87.10;102760.06;5052233;28;20223;-69
2021/03/02 10:24:34;;;;;;;9.80;7.83;;;;;;;6.87;86.82;102757.97;5042058;28;20375;-69
2021/03/02 10:27:08;;;;;;;9.90;8.00;;;;;;;6.72;86.22;102768.06;5035169;28;20222;-70
2021/03/02 10:29:34;;;;;;;9.43;8.13;;;;;;;7.00;86.72;102755.38;5052117;28;20721;-69
2021/03/02 10:31:59;;;;;;;9.33;7.90;;;;;;;7.09;86.62;102755.00;5033730;28;20227;-70
2021/03/02 10:34:25;;;;;;;9.27;7.93;;;;;;;7.20;84.01;102748.19;5052052;28;20199;-69
2021/03/02 10:36:54;;;;;;;8.60;7.70;;;;;;;7.34;84.08;102751.63;5034898;28;20223;-69
2021/03/02 10:39:22;;;;;;;10.17;7.90;;;;;;;7.64;85.47;102752.16;5035994;28;20191;-69
2021/03/02 10:41:47;;;;;;;9.83;7.87;;;;;;;7.77;84.10;102742.25;5033788;28;20723;-69
2021/03/02 10:44:13;;;;;;;10.93;8.70;;;;;;;8.01;81.40;102741.69;5018685;28;20199;-69
2021/03/02 10:46:41;;;;;;;10.03;8.00;;;;;;;7.95;81.80;102745.19;5034289;28;20775;-69
2021/03/02 10:49:07;;;;;;;10.77;7.67;;;;;;;8.18;81.79;102747.38;5035616;28;20933;-69
2021/03/02 10:51:33;;;;;;;8.00;7.20;;;;;;;8.20;81.41;102742.56;5084364;28;20228;-70
2021/03/02 10:54:01;;;;;;;9.93;7.97;;;;;;;8.03;80.20;102750.44;5057095;28;20200;-69
2021/03/02 10:56:27;;;;;;;8.60;7.43;;;;;;;8.13;80.23;102749.88;5017792;28;20258;-69
2021/03/02 10:58:52;;;;;;;8.83;7.93;;;;;;;8.35;80.34;102745.94;5018219;28;20188;-69
2021/03/02 11:01:18;;;;;;;8.80;7.57;;;;;;;8.66;77.89;102747.00;5017873;28;20231;-69
2021/03/02 11:03:43;;;;;;;8.90;7.57;;;;;;;8.70;79.91;102750.09;5053239;28;20214;-69
2021/03/02 11:06:11;;;;;;;10.00;7.90;;;;;;;9.17;75.32;102743.38;5034621;28;20215;-69
2021/03/02 11:08:37;;;;;;;9.57;7.33;;;;;;;9.14;77.42;102741.09;5035331;28;20190;-69
2021/03/02 11:11:04;;;;;;;8.03;7.23;;;;;;;9.17;75.61;102746.09;5067933;28;20219;-69
2021/03/02 11:13:30;;;;;;;9.03;7.50;;;;;;;9.29;75.53;102725.41;5053117;28;20215;-71
2021/03/02 11:15:55;;;;;;;20.53;16.87;;;;;;;9.67;75.05;102727.97;5043633;28;20222;-70
2021/03/02 11:18:21;;;;;;;10.17;9.13;;;;;;;9.69;73.39;102731.31;5052061;28;20195;-72
2021/03/02 11:20:47;;;;;;;8.27;6.90;;;;;;;9.65;70.40;102735.50;5043290;28;20220;-72